createdAt,value
2018-08-06T00:02:45.473Z,92.80
2018-08-06T00:07:50.398Z,92.60
2018-08-06T00:12:55.447Z,92.60
2018-08-06T00:18:00.351Z,93.10
2018-08-06T00:23:05.991Z,93.40
2018-08-06T00:28:10.918Z,93.70
2018-08-06T00:33:15.834Z,94.80
2018-08-06T00:38:20.761Z,95.00
2018-08-06T00:43:25.444Z,96.10
2018-08-06T00:48:30.361Z,96.40
2018-08-06T00:53:35.404Z,97.50
2018-08-06T00:58:40.092Z,97.90
2018-08-06T01:03:45.492Z,98.40
2018-08-06T01:08:50.464Z,98.80
2018-08-06T01:13:55.095Z,99.90
2018-08-06T01:18:59.793Z,99.90
2018-08-06T01:24:04.970Z,99.90
2018-08-06T01:29:09.739Z,99.90
2018-08-06T01:34:14.779Z,99.90
2018-08-06T01:39:19.476Z,99.90
2018-08-06T01:44:24.270Z,99.90
2018-08-06T01:49:28.947Z,99.90
2018-08-06T01:54:33.748Z,99.90
2018-08-06T01:59:38.553Z,99.90
2018-08-06T02:04:43.114Z,99.90
2018-08-06T02:09:48.878Z,99.90
2018-08-06T02:14:54.636Z,99.20
2018-08-06T02:19:59.332Z,98.70
2018-08-06T02:30:11.325Z,98.90
2018-08-06T02:35:16.487Z,98.90
2018-08-06T02:40:22.009Z,98.90
2018-08-06T02:45:26.695Z,98.90
2018-08-06T02:55:36.053Z,99.70
2018-08-06T03:00:40.734Z,99.30
2018-08-06T03:05:46.031Z,99.40
2018-08-06T03:10:51.062Z,99.60
2018-08-06T03:15:55.873Z,99.90
2018-08-06T03:21:00.665Z,99.90
2018-08-06T03:26:05.473Z,99.90
2018-08-06T03:31:10.270Z,99.90
2018-08-06T03:36:15.101Z,99.90
2018-08-06T03:46:24.104Z,99.90
2018-08-06T03:51:28.819Z,99.90
2018-08-06T04:06:42.929Z,99.90
2018-08-06T04:11:47.726Z,99.90
2018-08-06T04:16:52.468Z,99.90
2018-08-06T04:21:57.212Z,99.90
2018-08-06T04:27:01.893Z,99.90
2018-08-06T04:32:06.701Z,99.90
2018-08-06T04:37:11.478Z,99.90
2018-08-06T04:42:16.185Z,99.90
2018-08-06T04:47:21.101Z,99.90
2018-08-06T04:52:25.907Z,99.90
2018-08-06T04:57:30.704Z,99.90
2018-08-06T05:02:35.386Z,99.90
2018-08-06T05:07:40.187Z,99.90
2018-08-06T05:12:44.995Z,99.90
2018-08-06T05:17:49.912Z,99.90
2018-08-06T05:22:54.595Z,99.90
2018-08-06T05:27:59.638Z,99.90
2018-08-06T05:33:04.449Z,99.90
2018-08-06T05:38:16.800Z,99.90
2018-08-06T05:43:22.446Z,99.90
2018-08-06T05:48:27.727Z,99.80
2018-08-06T05:53:32.649Z,99.30
2018-08-06T05:58:37.568Z,99.10
2018-08-06T06:08:46.718Z,98.40
2018-08-06T06:18:57.037Z,98.20
2018-08-06T06:24:01.252Z,97.50
2018-08-06T06:29:08.477Z,97.10
2018-08-06T06:34:13.225Z,96.10
2018-08-06T06:39:21.220Z,95.00
2018-08-06T06:44:25.607Z,93.50
2018-08-06T06:49:29.812Z,93.10
2018-08-06T06:54:34.080Z,92.50
2018-08-06T06:59:38.222Z,92.30
2018-08-06T07:04:42.370Z,90.60
2018-08-06T07:09:46.569Z,88.90
2018-08-06T07:14:50.729Z,86.20
2018-08-06T07:19:54.898Z,82.80
2018-08-06T07:24:59.121Z,86.00
2018-08-06T07:35:08.608Z,81.10
2018-08-06T07:40:14.130Z,84.00
2018-08-06T07:45:19.524Z,79.10
2018-08-06T07:50:23.690Z,77.30
2018-08-06T07:55:27.886Z,75.00
2018-08-06T08:00:32.276Z,76.00
2018-08-06T08:05:36.432Z,76.10
2018-08-06T08:10:40.662Z,72.50
2018-08-06T08:15:44.938Z,73.00
2018-08-06T08:20:49.166Z,70.60
2018-08-06T08:25:53.412Z,75.80
2018-08-06T08:30:57.515Z,69.80
2018-08-06T08:36:01.603Z,72.10
2018-08-06T08:41:05.775Z,68.20
2018-08-06T08:46:09.910Z,70.60
2018-08-06T08:51:14.050Z,68.20
2018-08-06T08:56:18.223Z,65.70
2018-08-06T09:01:22.413Z,63.10
2018-08-06T09:11:30.189Z,67.50
2018-08-06T09:16:34.386Z,69.00
2018-08-06T09:21:39.137Z,67.90
2018-08-06T09:26:43.278Z,69.50
2018-08-06T09:31:47.350Z,67.90
2018-08-06T09:36:51.520Z,66.30
2018-08-06T09:41:55.697Z,62.30
2018-08-06T09:46:59.838Z,65.00
2018-08-06T09:57:08.284Z,60.00
2018-08-06T10:02:12.344Z,63.10
2018-08-06T10:07:16.452Z,62.10
2018-08-06T10:12:20.534Z,60.00
2018-08-06T10:17:24.628Z,59.60
2018-08-06T10:22:28.759Z,59.60
2018-08-06T10:27:32.858Z,59.50
2018-08-06T10:37:40.733Z,58.00
2018-08-06T10:42:45.248Z,60.20
2018-08-06T10:47:49.844Z,60.20
2018-08-06T10:52:53.948Z,58.40
2018-08-06T10:57:58.087Z,55.90
2018-08-06T11:03:02.344Z,57.70
2018-08-06T11:08:06.518Z,57.30
2018-08-06T11:13:10.691Z,57.80
2018-08-06T11:18:14.808Z,58.00
2018-08-06T11:23:18.941Z,55.60
2018-08-06T11:28:23.139Z,55.80
2018-08-06T11:33:27.201Z,51.70
2018-08-06T11:38:32.223Z,51.70
2018-08-06T11:43:36.331Z,53.80
2018-08-06T11:48:40.392Z,51.90
2018-08-06T11:53:45.329Z,53.00
2018-08-06T11:58:49.533Z,52.60
2018-08-06T12:03:53.987Z,50.10
2018-08-06T12:08:58.050Z,50.70
2018-08-06T12:14:02.219Z,50.30
2018-08-06T12:19:06.877Z,47.90
2018-08-06T12:24:11.963Z,46.60
2018-08-06T12:29:16.062Z,47.30
2018-08-06T12:34:20.296Z,47.30
2018-08-06T12:44:28.233Z,47.00
2018-08-06T12:54:36.899Z,48.90
2018-08-06T12:59:41.098Z,47.60
2018-08-06T13:04:45.291Z,47.60
2018-08-06T13:09:49.443Z,48.10
2018-08-06T13:14:53.747Z,47.20
2018-08-06T13:19:57.836Z,47.10
2018-08-06T13:25:02.904Z,45.00
2018-08-06T13:30:10.769Z,42.60
2018-08-06T13:35:15.657Z,42.70
2018-08-06T13:40:20.078Z,46.00
2018-08-06T13:45:24.240Z,44.00
2018-08-06T13:50:28.365Z,42.30
2018-08-06T13:55:32.529Z,42.20
2018-08-06T14:00:36.754Z,42.00
2018-08-06T14:05:40.948Z,44.00
2018-08-06T14:10:45.187Z,43.30
2018-08-06T14:15:49.380Z,43.00
2018-08-06T14:20:53.519Z,40.00
2018-08-06T14:25:57.824Z,43.10
2018-08-06T14:31:02.100Z,44.40
2018-08-06T14:36:06.762Z,44.10
2018-08-06T14:41:11.797Z,42.00
2018-08-06T14:46:15.929Z,45.40
2018-08-06T14:51:20.218Z,45.20
2018-08-06T15:01:28.287Z,43.80
2018-08-06T15:06:32.707Z,45.50
2018-08-06T15:11:37.027Z,44.10
2018-08-06T15:22:48.230Z,42.00
2018-08-06T15:27:52.566Z,44.20
2018-08-06T15:32:57.903Z,43.30
2018-08-06T15:38:02.229Z,45.90
2018-08-06T15:48:10.934Z,45.30
2018-08-06T16:00:47.952Z,46.10
2018-08-06T16:05:52.734Z,44.10
2018-08-06T16:10:57.802Z,44.40
2018-08-06T16:16:02.768Z,46.60
2018-08-06T16:21:07.858Z,44.70
2018-08-06T16:26:12.949Z,47.50
2018-08-06T16:31:17.163Z,46.10
2018-08-06T16:36:21.397Z,47.50
2018-08-06T16:41:25.610Z,45.70
2018-08-06T16:46:29.925Z,46.60
2018-08-06T16:51:34.089Z,46.50
2018-08-06T16:56:38.253Z,47.90
2018-08-06T17:01:42.449Z,50.70
2018-08-06T17:06:46.649Z,51.30
2018-08-06T17:11:50.997Z,51.40
2018-08-06T17:16:55.207Z,52.10
2018-08-06T17:27:03.384Z,52.20
2018-08-06T17:32:07.532Z,52.00
2018-08-06T17:37:11.909Z,51.90
2018-08-06T17:42:16.158Z,51.90
2018-08-06T17:47:20.687Z,52.60
2018-08-06T17:52:25.063Z,52.40
2018-08-06T17:57:29.574Z,53.10
2018-08-06T18:02:34.621Z,52.90
2018-08-06T18:12:44.248Z,52.60
2018-08-06T18:17:48.596Z,54.20
2018-08-06T18:22:52.865Z,54.20
2018-08-06T18:27:58.204Z,54.60
2018-08-06T18:33:02.391Z,55.90
2018-08-06T18:38:06.804Z,55.10
2018-08-06T18:43:11.833Z,55.80
2018-08-06T18:48:16.947Z,56.30
2018-08-06T18:53:21.235Z,56.50
2018-08-06T18:58:25.411Z,56.70
2018-08-06T19:03:29.672Z,56.80
2018-08-06T19:08:33.858Z,57.80
2018-08-06T19:14:45.560Z,57.80
2018-08-06T19:19:50.526Z,58.00
2018-08-06T19:25:00.131Z,58.50
2018-08-06T19:30:05.690Z,58.60
2018-08-06T19:35:10.139Z,58.90
2018-08-06T19:40:14.445Z,59.00
2018-08-06T19:45:18.701Z,59.30
2018-08-06T19:50:28.268Z,59.80
2018-08-06T19:55:37.603Z,60.00
2018-08-06T20:00:42.407Z,60.00
2018-08-06T20:05:47.425Z,60.60
2018-08-06T20:10:51.642Z,61.00
2018-08-06T20:15:56.094Z,61.40
2018-08-06T20:26:04.231Z,62.20
2018-08-06T20:31:08.519Z,62.70
2018-08-06T20:36:12.761Z,63.20
2018-08-06T20:41:16.835Z,63.30
2018-08-06T20:46:21.504Z,63.70
2018-08-06T20:51:25.740Z,63.70
2018-08-06T20:56:29.870Z,64.00
2018-08-06T21:01:33.996Z,64.10
2018-08-06T21:06:39.626Z,64.10
2018-08-06T21:11:43.918Z,65.40
2018-08-06T21:16:48.054Z,65.50
2018-08-06T21:21:52.229Z,65.90
2018-08-06T21:26:56.453Z,67.00
2018-08-06T21:32:00.607Z,66.80
2018-08-06T21:37:04.709Z,66.30
2018-08-06T21:42:08.817Z,67.00
2018-08-06T21:52:17.424Z,68.40
2018-08-06T21:57:21.503Z,67.90
2018-08-06T22:02:25.729Z,67.80
2018-08-06T22:07:29.916Z,68.30
2018-08-06T22:12:34.052Z,67.90
2018-08-06T22:17:38.359Z,68.80
2018-08-06T22:22:42.480Z,69.50
2018-08-06T22:27:47.509Z,69.40
2018-08-06T22:32:51.700Z,69.40
2018-08-06T22:37:55.868Z,70.00
2018-08-06T22:42:59.982Z,70.60
2018-08-06T22:48:04.238Z,70.30
2018-08-06T22:53:08.568Z,70.40
2018-08-06T22:58:12.729Z,70.80
2018-08-06T23:03:19.333Z,71.10
2018-08-06T23:08:23.679Z,71.90
2018-08-06T23:13:27.956Z,71.10
2018-08-06T23:18:32.676Z,71.40
2018-08-06T23:23:36.852Z,71.20
2018-08-06T23:28:41.016Z,71.90
2018-08-06T23:33:45.166Z,72.60
2018-08-06T23:38:50.842Z,72.50
2018-08-06T23:49:00.146Z,72.70
2018-08-06T23:54:04.359Z,72.20
2018-08-06T23:59:08.472Z,72.00
